Gibson, Iowa
Current Conditions -  °F | °C
As of 1:35 PM on Thursday 23 Oct 2014 (Local Time) from KOOA Reporting Station
Overcast Overcast  
Wind Chill: 62°   Ceiling: 1600
Heat Index: 62°   Visibility: 10mi
Dew Point: 53°   Wind: 10mph
Humidity: 74%   Direction: 250°WSW
Pressure: 30.05"   Gusts: NA
Location:  41.48°N, 92.39°W
Report Text: KOOA 231835Z AUTO 25009KT 10SM OVC016 17/12 A3005 RMK AO2 T01650118
Loading
Personal Weather Stations






























Interactive Weather Map
Tropical Storm Tracking
New forecast layout! Learn more

10-Day Weather Forecast

Advertisements
Track Severe Weather on mobile